sensor_id;sensor_type;location;lat;lon;timestamp;P1;durP1;ratioP1;P2;durP2;ratioP2
21152;SDS011;10734;44.792;20.482;2023-08-30T00:00:50;17.42;;;8.63;;
21152;SDS011;10734;44.792;20.482;2023-08-30T00:03:16;16.23;;;8.35;;
21152;SDS011;10734;44.792;20.482;2023-08-30T00:05:43;12.95;;;8.63;;
21152;SDS011;10734;44.792;20.482;2023-08-30T00:08:10;12.93;;;7.25;;
21152;SDS011;10734;44.792;20.482;2023-08-30T00:10:36;16.90;;;7.82;;
21152;SDS011;10734;44.792;20.482;2023-08-30T00:13:04;10.65;;;7.00;;
21152;SDS011;10734;44.792;20.482;2023-08-30T00:15:31;10.82;;;7.28;;
21152;SDS011;10734;44.792;20.482;2023-08-30T00:17:58;15.75;;;8.95;;
21152;SDS011;10734;44.792;20.482;2023-08-30T00:20:24;17.08;;;8.93;;
21152;SDS011;10734;44.792;20.482;2023-08-30T00:22:51;16.17;;;8.75;;
21152;SDS011;10734;44.792;20.482;2023-08-30T00:25:18;16.73;;;8.55;;
21152;SDS011;10734;44.792;20.482;2023-08-30T00:27:45;17.40;;;8.00;;
21152;SDS011;10734;44.792;20.482;2023-08-30T00:30:11;15.13;;;8.25;;
21152;SDS011;10734;44.792;20.482;2023-08-30T00:32:38;16.95;;;9.38;;
21152;SDS011;10734;44.792;20.482;2023-08-30T00:35:05;15.13;;;9.23;;
21152;SDS011;10734;44.792;20.482;2023-08-30T00:37:31;14.00;;;8.57;;
21152;SDS011;10734;44.792;20.482;2023-08-30T00:39:58;20.20;;;9.20;;
21152;SDS011;10734;44.792;20.482;2023-08-30T00:42:26;13.98;;;7.95;;
21152;SDS011;10734;44.792;20.482;2023-08-30T00:44:53;15.48;;;8.40;;
21152;SDS011;10734;44.792;20.482;2023-08-30T00:47:20;16.83;;;8.18;;
21152;SDS011;10734;44.792;20.482;2023-08-30T00:49:47;14.60;;;8.02;;
21152;SDS011;10734;44.792;20.482;2023-08-30T00:52:14;19.02;;;9.32;;
21152;SDS011;10734;44.792;20.482;2023-08-30T00:54:40;14.38;;;8.60;;
21152;SDS011;10734;44.792;20.482;2023-08-30T00:57:07;15.98;;;9.52;;
21152;SDS011;10734;44.792;20.482;2023-08-30T00:59:34;15.20;;;9.45;;
21152;SDS011;10734;44.792;20.482;2023-08-30T01:02:00;14.80;;;8.00;;
21152;SDS011;10734;44.792;20.482;2023-08-30T01:04:27;14.88;;;10.00;;
21152;SDS011;10734;44.792;20.482;2023-08-30T01:06:54;15.32;;;9.23;;
21152;SDS011;10734;44.792;20.482;2023-08-30T01:09:20;14.52;;;9.57;;
21152;SDS011;10734;44.792;20.482;2023-08-30T01:11:56;11.55;;;8.80;;
21152;SDS011;10734;44.792;20.482;2023-08-30T01:14:31;15.10;;;9.00;;
21152;SDS011;10734;44.792;20.482;2023-08-30T01:17:01;14.23;;;8.38;;
21152;SDS011;10734;44.792;20.482;2023-08-30T01:22:16;14.60;;;9.18;;
21152;SDS011;10734;44.792;20.482;2023-08-30T01:27:19;15.30;;;9.15;;
21152;SDS011;10734;44.792;20.482;2023-08-30T01:29:46;15.55;;;8.98;;
21152;SDS011;10734;44.792;20.482;2023-08-30T01:32:13;13.05;;;9.57;;
21152;SDS011;10734;44.792;20.482;2023-08-30T01:34:40;13.57;;;10.75;;
21152;SDS011;10734;44.792;20.482;2023-08-30T01:37:08;16.15;;;10.68;;
21152;SDS011;10734;44.792;20.482;2023-08-30T01:39:36;14.95;;;10.27;;
21152;SDS011;10734;44.792;20.482;2023-08-30T01:42:03;22.00;;;9.98;;
21152;SDS011;10734;44.792;20.482;2023-08-30T01:44:30;14.65;;;9.20;;
21152;SDS011;10734;44.792;20.482;2023-08-30T01:46:57;21.40;;;10.25;;
21152;SDS011;10734;44.792;20.482;2023-08-30T01:49:24;16.52;;;9.80;;
21152;SDS011;10734;44.792;20.482;2023-08-30T01:51:51;14.15;;;9.80;;
21152;SDS011;10734;44.792;20.482;2023-08-30T01:54:18;15.23;;;9.38;;
21152;SDS011;10734;44.792;20.482;2023-08-30T01:56:45;16.20;;;9.45;;
21152;SDS011;10734;44.792;20.482;2023-08-30T01:59:12;14.40;;;8.98;;
21152;SDS011;10734;44.792;20.482;2023-08-30T02:01:39;13.88;;;9.32;;
21152;SDS011;10734;44.792;20.482;2023-08-30T02:04:06;16.40;;;10.00;;
21152;SDS011;10734;44.792;20.482;2023-08-30T02:11:43;15.68;;;9.38;;
21152;SDS011;10734;44.792;20.482;2023-08-30T02:14:10;19.80;;;10.82;;
21152;SDS011;10734;44.792;20.482;2023-08-30T02:16:37;13.18;;;10.82;;
21152;SDS011;10734;44.792;20.482;2023-08-30T02:19:05;20.13;;;10.32;;
21152;SDS011;10734;44.792;20.482;2023-08-30T02:21:33;14.55;;;9.00;;
21152;SDS011;10734;44.792;20.482;2023-08-30T02:23:59;11.95;;;8.13;;
21152;SDS011;10734;44.792;20.482;2023-08-30T02:26:26;11.35;;;8.52;;
21152;SDS011;10734;44.792;20.482;2023-08-30T02:28:52;12.70;;;8.68;;
21152;SDS011;10734;44.792;20.482;2023-08-30T02:31:19;14.48;;;9.35;;
21152;SDS011;10734;44.792;20.482;2023-08-30T02:33:45;12.13;;;8.30;;
21152;SDS011;10734;44.792;20.482;2023-08-30T02:36:12;19.00;;;9.63;;
21152;SDS011;10734;44.792;20.482;2023-08-30T02:38:39;13.10;;;8.80;;
21152;SDS011;10734;44.792;20.482;2023-08-30T02:41:05;12.55;;;8.48;;
21152;SDS011;10734;44.792;20.482;2023-08-30T02:43:32;13.50;;;9.32;;
21152;SDS011;10734;44.792;20.482;2023-08-30T02:45:58;17.33;;;10.43;;
21152;SDS011;10734;44.792;20.482;2023-08-30T02:48:25;13.95;;;10.30;;
21152;SDS011;10734;44.792;20.482;2023-08-30T02:50:51;17.17;;;10.23;;
21152;SDS011;10734;44.792;20.482;2023-08-30T02:53:18;15.43;;;10.57;;
21152;SDS011;10734;44.792;20.482;2023-08-30T02:55:46;24.50;;;10.70;;
21152;SDS011;10734;44.792;20.482;2023-08-30T02:58:12;16.80;;;10.48;;
21152;SDS011;10734;44.792;20.482;2023-08-30T03:00:39;12.48;;;9.45;;
21152;SDS011;10734;44.792;20.482;2023-08-30T03:03:05;14.93;;;9.05;;
21152;SDS011;10734;44.792;20.482;2023-08-30T03:05:32;17.02;;;9.90;;
21152;SDS011;10734;44.792;20.482;2023-08-30T03:07:59;13.27;;;10.05;;
21152;SDS011;10734;44.792;20.482;2023-08-30T03:10:25;13.95;;;10.15;;
21152;SDS011;10734;44.792;20.482;2023-08-30T03:12:52;16.35;;;11.00;;
21152;SDS011;10734;44.792;20.482;2023-08-30T03:15:18;16.17;;;11.95;;
21152;SDS011;10734;44.792;20.482;2023-08-30T03:17:45;21.95;;;13.30;;
21152;SDS011;10734;44.792;20.482;2023-08-30T03:20:11;24.48;;;13.23;;
21152;SDS011;10734;44.792;20.482;2023-08-30T03:22:38;19.90;;;13.60;;
21152;SDS011;10734;44.792;20.482;2023-08-30T03:25:05;15.13;;;11.18;;
21152;SDS011;10734;44.792;20.482;2023-08-30T03:27:35;14.60;;;10.32;;
21152;SDS011;10734;44.792;20.482;2023-08-30T03:30:05;18.77;;;11.35;;
21152;SDS011;10734;44.792;20.482;2023-08-30T03:32:32;14.63;;;10.93;;
21152;SDS011;10734;44.792;20.482;2023-08-30T03:34:59;15.63;;;10.85;;
21152;SDS011;10734;44.792;20.482;2023-08-30T03:37:25;18.30;;;11.40;;
21152;SDS011;10734;44.792;20.482;2023-08-30T03:39:52;19.70;;;10.85;;
21152;SDS011;10734;44.792;20.482;2023-08-30T03:42:19;19.02;;;11.27;;
21152;SDS011;10734;44.792;20.482;2023-08-30T03:44:45;14.35;;;9.75;;
21152;SDS011;10734;44.792;20.482;2023-08-30T03:47:15;13.57;;;9.20;;
21152;SDS011;10734;44.792;20.482;2023-08-30T03:49:43;16.33;;;11.10;;
21152;SDS011;10734;44.792;20.482;2023-08-30T03:52:09;17.20;;;11.27;;
21152;SDS011;10734;44.792;20.482;2023-08-30T03:54:36;17.10;;;11.25;;
21152;SDS011;10734;44.792;20.482;2023-08-30T03:57:02;17.75;;;10.75;;
21152;SDS011;10734;44.792;20.482;2023-08-30T03:59:29;19.15;;;11.13;;
21152;SDS011;10734;44.792;20.482;2023-08-30T04:01:56;15.57;;;9.85;;
21152;SDS011;10734;44.792;20.482;2023-08-30T04:04:22;20.13;;;11.00;;
21152;SDS011;10734;44.792;20.482;2023-08-30T04:06:49;13.90;;;9.63;;
21152;SDS011;10734;44.792;20.482;2023-08-30T04:09:15;15.60;;;10.40;;
21152;SDS011;10734;44.792;20.482;2023-08-30T04:11:43;12.55;;;9.40;;
21152;SDS011;10734;44.792;20.482;2023-08-30T04:14:09;17.77;;;9.60;;
21152;SDS011;10734;44.792;20.482;2023-08-30T04:16:36;12.40;;;9.10;;
21152;SDS011;10734;44.792;20.482;2023-08-30T04:19:03;14.40;;;8.85;;
21152;SDS011;10734;44.792;20.482;2023-08-30T04:21:29;15.50;;;9.23;;
21152;SDS011;10734;44.792;20.482;2023-08-30T04:23:56;12.55;;;9.60;;
21152;SDS011;10734;44.792;20.482;2023-08-30T04:26:25;15.15;;;9.50;;
21152;SDS011;10734;44.792;20.482;2023-08-30T04:28:54;16.70;;;10.20;;
21152;SDS011;10734;44.792;20.482;2023-08-30T04:31:21;11.80;;;9.55;;
21152;SDS011;10734;44.792;20.482;2023-08-30T04:33:47;16.52;;;10.07;;
21152;SDS011;10734;44.792;20.482;2023-08-30T04:36:14;14.32;;;9.48;;
21152;SDS011;10734;44.792;20.482;2023-08-30T04:38:40;14.90;;;8.77;;
21152;SDS011;10734;44.792;20.482;2023-08-30T04:41:25;11.13;;;8.27;;
21152;SDS011;10734;44.792;20.482;2023-08-30T04:43:52;17.50;;;8.95;;
21152;SDS011;10734;44.792;20.482;2023-08-30T04:46:18;15.20;;;9.07;;
21152;SDS011;10734;44.792;20.482;2023-08-30T04:48:45;20.52;;;10.18;;
21152;SDS011;10734;44.792;20.482;2023-08-30T04:51:12;16.98;;;10.65;;
21152;SDS011;10734;44.792;20.482;2023-08-30T04:53:38;15.45;;;9.75;;
21152;SDS011;10734;44.792;20.482;2023-08-30T04:56:12;18.35;;;10.82;;
21152;SDS011;10734;44.792;20.482;2023-08-30T04:58:39;17.02;;;10.90;;
21152;SDS011;10734;44.792;20.482;2023-08-30T05:01:06;11.55;;;8.95;;
21152;SDS011;10734;44.792;20.482;2023-08-30T05:03:33;20.27;;;10.15;;
21152;SDS011;10734;44.792;20.482;2023-08-30T05:06:00;21.38;;;12.13;;
21152;SDS011;10734;44.792;20.482;2023-08-30T05:08:26;25.75;;;12.40;;
21152;SDS011;10734;44.792;20.482;2023-08-30T05:10:54;19.70;;;11.38;;
21152;SDS011;10734;44.792;20.482;2023-08-30T05:13:20;16.88;;;10.57;;
21152;SDS011;10734;44.792;20.482;2023-08-30T05:15:47;20.08;;;10.38;;
21152;SDS011;10734;44.792;20.482;2023-08-30T05:18:13;18.13;;;10.80;;
21152;SDS011;10734;44.792;20.482;2023-08-30T05:20:40;20.35;;;10.57;;
21152;SDS011;10734;44.792;20.482;2023-08-30T05:23:07;17.70;;;11.15;;
21152;SDS011;10734;44.792;20.482;2023-08-30T05:25:33;22.77;;;10.63;;
21152;SDS011;10734;44.792;20.482;2023-08-30T05:28:00;24.90;;;9.23;;
21152;SDS011;10734;44.792;20.482;2023-08-30T05:30:26;16.75;;;10.73;;
21152;SDS011;10734;44.792;20.482;2023-08-30T05:32:53;21.05;;;9.65;;
21152;SDS011;10734;44.792;20.482;2023-08-30T05:35:20;14.50;;;9.65;;
21152;SDS011;10734;44.792;20.482;2023-08-30T05:37:46;14.77;;;9.57;;
21152;SDS011;10734;44.792;20.482;2023-08-30T05:40:13;24.58;;;12.70;;
21152;SDS011;10734;44.792;20.482;2023-08-30T05:42:43;25.92;;;11.23;;
21152;SDS011;10734;44.792;20.482;2023-08-30T05:45:10;17.42;;;9.13;;
21152;SDS011;10734;44.792;20.482;2023-08-30T05:47:36;17.73;;;10.07;;
21152;SDS011;10734;44.792;20.482;2023-08-30T05:50:03;15.73;;;10.18;;
21152;SDS011;10734;44.792;20.482;2023-08-30T05:52:29;24.45;;;10.93;;
21152;SDS011;10734;44.792;20.482;2023-08-30T05:54:56;18.45;;;10.68;;
21152;SDS011;10734;44.792;20.482;2023-08-30T05:57:22;16.77;;;10.52;;
21152;SDS011;10734;44.792;20.482;2023-08-30T05:59:51;29.45;;;9.98;;
21152;SDS011;10734;44.792;20.482;2023-08-30T06:02:17;21.08;;;9.85;;
21152;SDS011;10734;44.792;20.482;2023-08-30T06:04:44;17.80;;;9.70;;
21152;SDS011;10734;44.792;20.482;2023-08-30T06:07:10;15.32;;;10.38;;
21152;SDS011;10734;44.792;20.482;2023-08-30T06:09:37;20.20;;;10.90;;
21152;SDS011;10734;44.792;20.482;2023-08-30T06:12:04;25.83;;;10.23;;
21152;SDS011;10734;44.792;20.482;2023-08-30T06:14:30;17.67;;;9.15;;
21152;SDS011;10734;44.792;20.482;2023-08-30T06:16:57;17.98;;;9.80;;
21152;SDS011;10734;44.792;20.482;2023-08-30T06:19:23;15.40;;;9.02;;
21152;SDS011;10734;44.792;20.482;2023-08-30T06:21:50;15.50;;;9.80;;
21152;SDS011;10734;44.792;20.482;2023-08-30T06:24:16;18.10;;;9.18;;
21152;SDS011;10734;44.792;20.482;2023-08-30T06:26:43;22.58;;;10.68;;
21152;SDS011;10734;44.792;20.482;2023-08-30T06:29:09;22.30;;;12.35;;
21152;SDS011;10734;44.792;20.482;2023-08-30T06:31:36;19.83;;;11.10;;
21152;SDS011;10734;44.792;20.482;2023-08-30T06:34:03;24.85;;;11.95;;
21152;SDS011;10734;44.792;20.482;2023-08-30T06:36:30;18.83;;;12.07;;
21152;SDS011;10734;44.792;20.482;2023-08-30T06:38:56;16.17;;;11.43;;
21152;SDS011;10734;44.792;20.482;2023-08-30T06:41:23;21.02;;;10.90;;
21152;SDS011;10734;44.792;20.482;2023-08-30T06:43:49;13.82;;;10.57;;
21152;SDS011;10734;44.792;20.482;2023-08-30T06:46:16;21.60;;;10.55;;
21152;SDS011;10734;44.792;20.482;2023-08-30T06:48:42;21.10;;;9.20;;
21152;SDS011;10734;44.792;20.482;2023-08-30T06:51:09;14.98;;;9.48;;
21152;SDS011;10734;44.792;20.482;2023-08-30T06:53:37;19.30;;;10.57;;
21152;SDS011;10734;44.792;20.482;2023-08-30T06:56:03;16.30;;;9.57;;
21152;SDS011;10734;44.792;20.482;2023-08-30T06:58:30;19.02;;;9.90;;
21152;SDS011;10734;44.792;20.482;2023-08-30T07:00:57;17.65;;;10.60;;
21152;SDS011;10734;44.792;20.482;2023-08-30T07:03:23;16.70;;;9.15;;
21152;SDS011;10734;44.792;20.482;2023-08-30T07:05:50;14.68;;;9.93;;
21152;SDS011;10734;44.792;20.482;2023-08-30T07:08:17;14.95;;;9.40;;
21152;SDS011;10734;44.792;20.482;2023-08-30T07:10:44;17.95;;;9.80;;
21152;SDS011;10734;44.792;20.482;2023-08-30T07:13:10;25.08;;;10.30;;
21152;SDS011;10734;44.792;20.482;2023-08-30T07:15:41;26.08;;;9.98;;
21152;SDS011;10734;44.792;20.482;2023-08-30T07:18:08;20.02;;;9.27;;
21152;SDS011;10734;44.792;20.482;2023-08-30T07:20:35;20.55;;;9.73;;
21152;SDS011;10734;44.792;20.482;2023-08-30T07:23:03;19.00;;;9.93;;
21152;SDS011;10734;44.792;20.482;2023-08-30T07:25:30;16.40;;;9.65;;
21152;SDS011;10734;44.792;20.482;2023-08-30T07:27:59;18.98;;;8.75;;
21152;SDS011;10734;44.792;20.482;2023-08-30T07:30:26;16.08;;;8.57;;
21152;SDS011;10734;44.792;20.482;2023-08-30T07:32:53;15.27;;;8.65;;
21152;SDS011;10734;44.792;20.482;2023-08-30T07:35:20;16.90;;;8.02;;
21152;SDS011;10734;44.792;20.482;2023-08-30T07:37:47;15.80;;;7.80;;
21152;SDS011;10734;44.792;20.482;2023-08-30T07:40:13;16.77;;;7.78;;
21152;SDS011;10734;44.792;20.482;2023-08-30T07:42:40;11.52;;;6.53;;
21152;SDS011;10734;44.792;20.482;2023-08-30T07:45:07;19.05;;;6.90;;
21152;SDS011;10734;44.792;20.482;2023-08-30T07:47:34;15.48;;;7.35;;
21152;SDS011;10734;44.792;20.482;2023-08-30T07:50:00;16.40;;;6.60;;
21152;SDS011;10734;44.792;20.482;2023-08-30T07:52:27;11.95;;;6.32;;
21152;SDS011;10734;44.792;20.482;2023-08-30T07:55:00;13.60;;;6.47;;
21152;SDS011;10734;44.792;20.482;2023-08-30T07:57:27;15.80;;;5.82;;
21152;SDS011;10734;44.792;20.482;2023-08-30T07:59:53;16.35;;;5.75;;
21152;SDS011;10734;44.792;20.482;2023-08-30T08:02:20;14.35;;;5.35;;
21152;SDS011;10734;44.792;20.482;2023-08-30T08:04:46;15.38;;;5.13;;
21152;SDS011;10734;44.792;20.482;2023-08-30T08:07:13;9.90;;;4.65;;
21152;SDS011;10734;44.792;20.482;2023-08-30T08:09:39;11.65;;;4.63;;
21152;SDS011;10734;44.792;20.482;2023-08-30T08:12:06;11.38;;;4.07;;
21152;SDS011;10734;44.792;20.482;2023-08-30T08:14:33;10.18;;;3.88;;
21152;SDS011;10734;44.792;20.482;2023-08-30T08:16:59;8.98;;;4.15;;
21152;SDS011;10734;44.792;20.482;2023-08-30T08:19:26;12.30;;;3.42;;
21152;SDS011;10734;44.792;20.482;2023-08-30T08:21:52;10.93;;;3.40;;
21152;SDS011;10734;44.792;20.482;2023-08-30T08:24:21;7.65;;;3.05;;
21152;SDS011;10734;44.792;20.482;2023-08-30T08:26:48;6.97;;;3.63;;
21152;SDS011;10734;44.792;20.482;2023-08-30T08:29:14;9.10;;;4.47;;
21152;SDS011;10734;44.792;20.482;2023-08-30T08:31:41;11.43;;;3.70;;
21152;SDS011;10734;44.792;20.482;2023-08-30T08:34:11;7.15;;;3.10;;
21152;SDS011;10734;44.792;20.482;2023-08-30T08:36:38;7.43;;;3.92;;
21152;SDS011;10734;44.792;20.482;2023-08-30T08:39:05;7.20;;;3.45;;
21152;SDS011;10734;44.792;20.482;2023-08-30T08:41:39;13.18;;;3.95;;
21152;SDS011;10734;44.792;20.482;2023-08-30T08:44:06;6.15;;;3.55;;
21152;SDS011;10734;44.792;20.482;2023-08-30T08:46:36;6.40;;;3.50;;
21152;SDS011;10734;44.792;20.482;2023-08-30T08:49:14;9.60;;;3.50;;
21152;SDS011;10734;44.792;20.482;2023-08-30T08:51:42;8.73;;;3.72;;
21152;SDS011;10734;44.792;20.482;2023-08-30T08:54:10;8.63;;;3.42;;
21152;SDS011;10734;44.792;20.482;2023-08-30T08:56:37;10.38;;;3.85;;
21152;SDS011;10734;44.792;20.482;2023-08-30T08:59:04;6.28;;;3.33;;
21152;SDS011;10734;44.792;20.482;2023-08-30T09:01:33;7.28;;;3.55;;
21152;SDS011;10734;44.792;20.482;2023-08-30T09:04:08;7.22;;;3.20;;
21152;SDS011;10734;44.792;20.482;2023-08-30T09:06:36;7.78;;;4.13;;
21152;SDS011;10734;44.792;20.482;2023-08-30T09:09:03;7.13;;;3.33;;
21152;SDS011;10734;44.792;20.482;2023-08-30T09:11:35;13.00;;;3.60;;
21152;SDS011;10734;44.792;20.482;2023-08-30T09:14:16;10.20;;;3.78;;
21152;SDS011;10734;44.792;20.482;2023-08-30T09:16:53;10.75;;;4.00;;
21152;SDS011;10734;44.792;20.482;2023-08-30T09:19:20;6.05;;;3.65;;
21152;SDS011;10734;44.792;20.482;2023-08-30T09:21:52;11.27;;;4.85;;
21152;SDS011;10734;44.792;20.482;2023-08-30T09:24:20;8.77;;;4.60;;
21152;SDS011;10734;44.792;20.482;2023-08-30T09:26:48;8.52;;;4.00;;
21152;SDS011;10734;44.792;20.482;2023-08-30T09:29:16;8.23;;;4.53;;
21152;SDS011;10734;44.792;20.482;2023-08-30T09:31:45;8.40;;;4.40;;
21152;SDS011;10734;44.792;20.482;2023-08-30T09:34:12;14.93;;;5.50;;
21152;SDS011;10734;44.792;20.482;2023-08-30T09:36:39;13.68;;;5.15;;
21152;SDS011;10734;44.792;20.482;2023-08-30T09:39:09;10.05;;;5.10;;
21152;SDS011;10734;44.792;20.482;2023-08-30T09:41:37;10.75;;;4.85;;
21152;SDS011;10734;44.792;20.482;2023-08-30T09:46:41;12.75;;;4.75;;
21152;SDS011;10734;44.792;20.482;2023-08-30T09:49:18;10.07;;;4.80;;
21152;SDS011;10734;44.792;20.482;2023-08-30T09:51:47;8.38;;;4.72;;
21152;SDS011;10734;44.792;20.482;2023-08-30T09:54:20;8.93;;;4.18;;
21152;SDS011;10734;44.792;20.482;2023-08-30T09:57:04;9.25;;;4.53;;
21152;SDS011;10734;44.792;20.482;2023-08-30T09:59:31;8.45;;;4.28;;
21152;SDS011;10734;44.792;20.482;2023-08-30T10:01:58;9.25;;;4.22;;
21152;SDS011;10734;44.792;20.482;2023-08-30T10:04:27;8.00;;;4.28;;
21152;SDS011;10734;44.792;20.482;2023-08-30T10:06:55;9.48;;;4.53;;
21152;SDS011;10734;44.792;20.482;2023-08-30T10:09:26;11.95;;;4.53;;
21152;SDS011;10734;44.792;20.482;2023-08-30T10:11:53;14.52;;;4.53;;
21152;SDS011;10734;44.792;20.482;2023-08-30T10:14:21;14.18;;;4.65;;
21152;SDS011;10734;44.792;20.482;2023-08-30T10:16:49;8.32;;;3.85;;
21152;SDS011;10734;44.792;20.482;2023-08-30T10:19:26;8.80;;;4.25;;
21152;SDS011;10734;44.792;20.482;2023-08-30T10:21:56;14.70;;;4.73;;
21152;SDS011;10734;44.792;20.482;2023-08-30T10:24:26;10.18;;;4.25;;
21152;SDS011;10734;44.792;20.482;2023-08-30T10:27:01;12.57;;;5.65;;
21152;SDS011;10734;44.792;20.482;2023-08-30T10:29:30;12.57;;;5.57;;
21152;SDS011;10734;44.792;20.482;2023-08-30T10:32:03;8.27;;;4.72;;
21152;SDS011;10734;44.792;20.482;2023-08-30T10:34:31;11.98;;;4.88;;
21152;SDS011;10734;44.792;20.482;2023-08-30T10:37:00;9.40;;;5.15;;
21152;SDS011;10734;44.792;20.482;2023-08-30T10:39:35;10.60;;;4.68;;
21152;SDS011;10734;44.792;20.482;2023-08-30T10:42:11;12.93;;;4.43;;
21152;SDS011;10734;44.792;20.482;2023-08-30T10:44:48;11.70;;;4.35;;
21152;SDS011;10734;44.792;20.482;2023-08-30T10:47:38;8.50;;;4.13;;
21152;SDS011;10734;44.792;20.482;2023-08-30T10:50:09;11.18;;;4.97;;
21152;SDS011;10734;44.792;20.482;2023-08-30T10:52:37;11.88;;;5.70;;
21152;SDS011;10734;44.792;20.482;2023-08-30T10:55:25;7.50;;;4.65;;
21152;SDS011;10734;44.792;20.482;2023-08-30T10:58:00;16.95;;;4.25;;
21152;SDS011;10734;44.792;20.482;2023-08-30T11:00:30;7.85;;;4.05;;
21152;SDS011;10734;44.792;20.482;2023-08-30T11:02:57;12.48;;;4.25;;
21152;SDS011;10734;44.792;20.482;2023-08-30T11:05:24;11.68;;;4.75;;
21152;SDS011;10734;44.792;20.482;2023-08-30T11:07:51;8.30;;;4.32;;
21152;SDS011;10734;44.792;20.482;2023-08-30T11:10:19;14.43;;;4.82;;
21152;SDS011;10734;44.792;20.482;2023-08-30T11:12:46;8.55;;;4.60;;
21152;SDS011;10734;44.792;20.482;2023-08-30T11:15:13;8.10;;;4.18;;
21152;SDS011;10734;44.792;20.482;2023-08-30T11:17:43;12.52;;;4.50;;
21152;SDS011;10734;44.792;20.482;2023-08-30T11:20:11;15.50;;;4.45;;
21152;SDS011;10734;44.792;20.482;2023-08-30T11:22:45;9.02;;;3.95;;
21152;SDS011;10734;44.792;20.482;2023-08-30T11:25:13;10.60;;;3.90;;
21152;SDS011;10734;44.792;20.482;2023-08-30T11:27:40;11.05;;;4.60;;
21152;SDS011;10734;44.792;20.482;2023-08-30T11:30:07;8.45;;;3.63;;
21152;SDS011;10734;44.792;20.482;2023-08-30T11:32:35;8.88;;;3.97;;
21152;SDS011;10734;44.792;20.482;2023-08-30T11:35:04;7.15;;;4.25;;
21152;SDS011;10734;44.792;20.482;2023-08-30T11:37:31;12.95;;;4.80;;
21152;SDS011;10734;44.792;20.482;2023-08-30T11:39:58;9.63;;;4.22;;
21152;SDS011;10734;44.792;20.482;2023-08-30T11:42:26;13.45;;;4.40;;
21152;SDS011;10734;44.792;20.482;2023-08-30T11:44:52;11.50;;;4.20;;
21152;SDS011;10734;44.792;20.482;2023-08-30T11:47:22;8.27;;;4.40;;
21152;SDS011;10734;44.792;20.482;2023-08-30T11:49:49;12.38;;;4.38;;
21152;SDS011;10734;44.792;20.482;2023-08-30T11:52:16;8.27;;;4.55;;
21152;SDS011;10734;44.792;20.482;2023-08-30T11:54:44;7.88;;;4.55;;
21152;SDS011;10734;44.792;20.482;2023-08-30T11:57:10;7.53;;;3.97;;
21152;SDS011;10734;44.792;20.482;2023-08-30T11:59:37;7.15;;;4.50;;
21152;SDS011;10734;44.792;20.482;2023-08-30T12:02:04;11.55;;;4.10;;
21152;SDS011;10734;44.792;20.482;2023-08-30T12:04:31;7.22;;;3.80;;
21152;SDS011;10734;44.792;20.482;2023-08-30T12:06:58;8.32;;;4.47;;
21152;SDS011;10734;44.792;20.482;2023-08-30T12:09:31;11.32;;;4.13;;
21152;SDS011;10734;44.792;20.482;2023-08-30T12:12:10;7.85;;;4.40;;
21152;SDS011;10734;44.792;20.482;2023-08-30T12:14:37;8.30;;;4.47;;
21152;SDS011;10734;44.792;20.482;2023-08-30T12:17:04;10.95;;;4.43;;
21152;SDS011;10734;44.792;20.482;2023-08-30T12:19:31;7.05;;;4.80;;
21152;SDS011;10734;44.792;20.482;2023-08-30T12:22:08;10.45;;;5.15;;
21152;SDS011;10734;44.792;20.482;2023-08-30T12:24:44;9.82;;;4.57;;
21152;SDS011;10734;44.792;20.482;2023-08-30T12:27:11;12.25;;;3.67;;
21152;SDS011;10734;44.792;20.482;2023-08-30T12:29:37;7.60;;;3.63;;
21152;SDS011;10734;44.792;20.482;2023-08-30T12:32:04;8.10;;;3.42;;
21152;SDS011;10734;44.792;20.482;2023-08-30T12:34:33;5.97;;;3.65;;
21152;SDS011;10734;44.792;20.482;2023-08-30T12:37:00;5.97;;;3.42;;
21152;SDS011;10734;44.792;20.482;2023-08-30T12:39:30;6.93;;;3.85;;
21152;SDS011;10734;44.792;20.482;2023-08-30T12:41:57;6.35;;;3.35;;
21152;SDS011;10734;44.792;20.482;2023-08-30T12:44:24;4.82;;;3.40;;
21152;SDS011;10734;44.792;20.482;2023-08-30T12:46:50;9.05;;;2.88;;
21152;SDS011;10734;44.792;20.482;2023-08-30T12:49:17;5.03;;;2.72;;
21152;SDS011;10734;44.792;20.482;2023-08-30T12:51:44;5.32;;;3.08;;
21152;SDS011;10734;44.792;20.482;2023-08-30T12:54:10;4.65;;;2.92;;
21152;SDS011;10734;44.792;20.482;2023-08-30T12:56:37;8.55;;;2.95;;
21152;SDS011;10734;44.792;20.482;2023-08-30T12:59:03;6.88;;;2.75;;
21152;SDS011;10734;44.792;20.482;2023-08-30T13:01:30;3.75;;;2.63;;
21152;SDS011;10734;44.792;20.482;2023-08-30T13:03:57;4.45;;;3.00;;
21152;SDS011;10734;44.792;20.482;2023-08-30T13:06:23;5.25;;;2.70;;
21152;SDS011;10734;44.792;20.482;2023-08-30T13:08:50;4.28;;;2.42;;
21152;SDS011;10734;44.792;20.482;2023-08-30T13:11:17;5.78;;;2.72;;
21152;SDS011;10734;44.792;20.482;2023-08-30T13:13:43;5.80;;;3.20;;
21152;SDS011;10734;44.792;20.482;2023-08-30T13:16:10;6.53;;;2.90;;
21152;SDS011;10734;44.792;20.482;2023-08-30T13:18:36;6.00;;;3.30;;
21152;SDS011;10734;44.792;20.482;2023-08-30T13:21:03;5.22;;;3.22;;
21152;SDS011;10734;44.792;20.482;2023-08-30T13:23:30;7.60;;;3.35;;
21152;SDS011;10734;44.792;20.482;2023-08-30T13:25:57;4.35;;;3.38;;
21152;SDS011;10734;44.792;20.482;2023-08-30T13:28:24;6.38;;;3.47;;
21152;SDS011;10734;44.792;20.482;2023-08-30T13:30:50;9.25;;;3.22;;
21152;SDS011;10734;44.792;20.482;2023-08-30T13:33:18;5.32;;;3.50;;
21152;SDS011;10734;44.792;20.482;2023-08-30T13:35:48;5.03;;;3.53;;
21152;SDS011;10734;44.792;20.482;2023-08-30T13:38:14;4.33;;;3.37;;
21152;SDS011;10734;44.792;20.482;2023-08-30T13:40:41;5.97;;;4.32;;
21152;SDS011;10734;44.792;20.482;2023-08-30T13:43:08;7.30;;;4.38;;
21152;SDS011;10734;44.792;20.482;2023-08-30T13:45:35;9.88;;;4.53;;
21152;SDS011;10734;44.792;20.482;2023-08-30T13:48:02;7.07;;;5.22;;
21152;SDS011;10734;44.792;20.482;2023-08-30T13:50:28;7.22;;;5.20;;
21152;SDS011;10734;44.792;20.482;2023-08-30T13:52:57;8.18;;;4.63;;
21152;SDS011;10734;44.792;20.482;2023-08-30T13:55:24;8.73;;;4.75;;
21152;SDS011;10734;44.792;20.482;2023-08-30T13:57:50;7.22;;;5.20;;
21152;SDS011;10734;44.792;20.482;2023-08-30T14:00:17;6.15;;;4.47;;
21152;SDS011;10734;44.792;20.482;2023-08-30T14:02:44;7.82;;;4.50;;
21152;SDS011;10734;44.792;20.482;2023-08-30T14:05:11;10.73;;;4.57;;
21152;SDS011;10734;44.792;20.482;2023-08-30T14:07:38;6.82;;;4.80;;
21152;SDS011;10734;44.792;20.482;2023-08-30T14:10:05;7.97;;;4.72;;
21152;SDS011;10734;44.792;20.482;2023-08-30T14:12:32;8.95;;;5.43;;
21152;SDS011;10734;44.792;20.482;2023-08-30T14:15:00;7.53;;;4.93;;
21152;SDS011;10734;44.792;20.482;2023-08-30T14:17:27;8.77;;;4.78;;
21152;SDS011;10734;44.792;20.482;2023-08-30T14:19:54;10.88;;;5.63;;
21152;SDS011;10734;44.792;20.482;2023-08-30T14:22:21;5.70;;;4.50;;
21152;SDS011;10734;44.792;20.482;2023-08-30T14:24:48;8.57;;;4.55;;
21152;SDS011;10734;44.792;20.482;2023-08-30T14:27:34;8.23;;;4.85;;
21152;SDS011;10734;44.792;20.482;2023-08-30T14:30:00;8.18;;;4.93;;
21152;SDS011;10734;44.792;20.482;2023-08-30T14:32:27;8.85;;;4.85;;
21152;SDS011;10734;44.792;20.482;2023-08-30T14:34:54;7.95;;;4.78;;
21152;SDS011;10734;44.792;20.482;2023-08-30T14:37:20;9.93;;;5.30;;
21152;SDS011;10734;44.792;20.482;2023-08-30T14:39:47;6.35;;;4.35;;